createdAt,value
2018-01-20T00:01:37.255Z,49.80
2018-01-20T00:04:03.488Z,49.86
2018-01-20T00:06:29.783Z,49.87
2018-01-20T00:08:56.094Z,49.86
2018-01-20T00:11:34.599Z,49.86
2018-01-20T00:14:01.156Z,49.85
2018-01-20T00:16:27.312Z,49.85
2018-01-20T00:18:53.822Z,49.76
2018-01-20T00:21:20.075Z,49.79
2018-01-20T00:23:46.322Z,49.83
2018-01-20T00:26:18.514Z,49.83
2018-01-20T00:28:44.776Z,49.77
2018-01-20T00:31:10.973Z,49.81
2018-01-20T00:33:37.147Z,49.76
2018-01-20T00:36:03.397Z,49.75
2018-01-20T00:38:29.604Z,49.80
2018-01-20T00:40:55.804Z,49.76
2018-01-20T00:43:22.062Z,49.80
2018-01-20T00:45:48.240Z,49.78
2018-01-20T00:48:14.399Z,49.74
2018-01-20T00:50:40.732Z,49.72
2018-01-20T00:53:06.950Z,49.76
2018-01-20T00:55:33.155Z,49.76
2018-01-20T00:57:59.362Z,49.71
2018-01-20T01:00:25.587Z,49.67
2018-01-20T01:02:51.816Z,49.67
2018-01-20T01:05:18.078Z,49.70
2018-01-20T01:07:44.629Z,49.72
2018-01-20T01:10:10.845Z,49.75
2018-01-20T01:12:37.100Z,49.79
2018-01-20T01:15:03.361Z,49.76
2018-01-20T01:17:29.577Z,49.67
2018-01-20T01:19:56.180Z,49.68
2018-01-20T01:22:22.389Z,49.65
2018-01-20T01:24:48.605Z,49.66
2018-01-20T01:27:15.177Z,49.67
2018-01-20T01:29:41.361Z,49.63
2018-01-20T01:32:07.577Z,49.63
2018-01-20T01:34:33.793Z,49.64
2018-01-20T01:37:00.284Z,49.67
2018-01-20T01:39:26.481Z,49.67
2018-01-20T01:41:58.763Z,49.69
2018-01-20T01:44:24.972Z,49.67
2018-01-20T01:46:51.185Z,49.70
2018-01-20T01:49:17.422Z,49.63
2018-01-20T01:51:43.632Z,49.65
2018-01-20T01:54:09.873Z,49.65
2018-01-20T01:56:36.108Z,49.63
2018-01-20T01:59:02.308Z,49.63
2018-01-20T02:01:28.512Z,49.65
2018-01-20T02:03:54.729Z,49.66
2018-01-20T02:06:20.932Z,49.65
2018-01-20T02:08:47.130Z,49.54
2018-01-20T02:11:13.301Z,49.62
2018-01-20T02:13:39.532Z,49.54
2018-01-20T02:16:05.978Z,49.55
2018-01-20T02:18:32.193Z,49.54
2018-01-20T02:20:58.416Z,49.56
2018-01-20T02:23:24.577Z,49.54
2018-01-20T02:25:50.850Z,49.53
2018-01-20T02:28:17.086Z,49.50
2018-01-20T02:30:43.296Z,49.51
2018-01-20T02:33:09.505Z,49.51
2018-01-20T02:35:36.253Z,49.52
2018-01-20T02:38:02.548Z,49.53
2018-01-20T02:40:28.731Z,49.54
2018-01-20T02:42:54.991Z,49.52
2018-01-20T02:45:21.184Z,49.48
2018-01-20T02:47:47.340Z,49.53
2018-01-20T02:50:13.888Z,49.51
2018-01-20T02:52:40.053Z,49.53
2018-01-20T02:55:06.301Z,49.54
2018-01-20T02:57:32.572Z,49.51
2018-01-20T02:59:58.799Z,49.52
2018-01-20T03:02:25.013Z,49.51
2018-01-20T03:04:51.612Z,49.50
2018-01-20T03:07:18.106Z,49.49
2018-01-20T03:09:44.307Z,49.53
2018-01-20T03:12:10.541Z,49.48
2018-01-20T03:14:36.711Z,49.53
2018-01-20T03:17:02.912Z,49.48
2018-01-20T03:19:29.513Z,49.50
2018-01-20T03:21:55.721Z,49.51
2018-01-20T03:24:22.218Z,49.48
2018-01-20T03:26:48.481Z,49.44
2018-01-20T03:29:14.682Z,49.44
2018-01-20T03:31:40.896Z,49.44
2018-01-20T03:34:07.127Z,49.45
2018-01-20T03:36:33.297Z,49.39
2018-01-20T03:38:59.505Z,49.39
2018-01-20T03:41:25.729Z,49.40
2018-01-20T03:43:51.942Z,49.43
2018-01-20T03:46:18.162Z,49.41
2018-01-20T03:48:44.432Z,49.45
2018-01-20T03:51:10.644Z,49.46
2018-01-20T03:53:37.151Z,49.43
2018-01-20T03:56:03.412Z,49.42
2018-01-20T03:58:29.672Z,49.36
2018-01-20T04:00:55.893Z,49.32
2018-01-20T04:03:22.112Z,49.29
2018-01-20T04:05:48.311Z,49.28
2018-01-20T04:08:14.516Z,49.24
2018-01-20T04:10:40.757Z,49.25
2018-01-20T04:13:06.972Z,49.29
2018-01-20T04:15:33.130Z,49.27
2018-01-20T04:17:59.738Z,49.20
2018-01-20T04:20:26.174Z,49.25
2018-01-20T04:22:52.709Z,49.31
2018-01-20T04:25:19.284Z,49.34
2018-01-20T04:27:45.454Z,49.28
2018-01-20T04:30:11.661Z,49.29
2018-01-20T04:32:37.920Z,49.22
2018-01-20T04:35:04.141Z,49.26
2018-01-20T04:37:30.352Z,49.19
2018-01-20T04:39:56.872Z,49.23
2018-01-20T04:42:23.053Z,49.28
2018-01-20T04:44:49.264Z,49.25
2018-01-20T04:47:15.517Z,49.17
2018-01-20T04:49:42.040Z,49.13
2018-01-20T04:52:08.572Z,49.15
2018-01-20T04:54:34.833Z,49.14
2018-01-20T04:57:01.033Z,49.09
2018-01-20T04:59:27.257Z,49.06
2018-01-20T05:01:53.504Z,49.11
2018-01-20T05:04:19.704Z,49.07
2018-01-20T05:06:45.892Z,49.17
2018-01-20T05:09:12.204Z,49.12
2018-01-20T05:11:38.416Z,49.16
2018-01-20T05:14:04.623Z,49.12
2018-01-20T05:16:30.872Z,49.11
2018-01-20T05:18:57.084Z,49.13
2018-01-20T05:21:23.290Z,49.17
2018-01-20T05:23:49.513Z,49.17
2018-01-20T05:26:15.776Z,49.12
2018-01-20T05:28:41.984Z,49.07
2018-01-20T05:31:08.429Z,49.02
2018-01-20T05:33:34.683Z,48.94
2018-01-20T05:36:01.197Z,48.91
2018-01-20T05:38:27.364Z,48.87
2018-01-20T05:40:53.853Z,48.86
2018-01-20T05:43:20.069Z,48.80
2018-01-20T05:45:46.388Z,48.77
2018-01-20T05:48:12.596Z,48.75
2018-01-20T05:50:38.779Z,48.76
2018-01-20T05:53:05.006Z,48.71
2018-01-20T05:55:31.184Z,48.76
2018-01-20T05:57:57.408Z,48.74
2018-01-20T06:00:24.033Z,48.75
2018-01-20T06:02:50.219Z,48.75
2018-01-20T06:05:16.388Z,48.72
2018-01-20T06:07:42.664Z,48.71
2018-01-20T06:10:08.856Z,48.71
2018-01-20T06:12:35.023Z,48.74
2018-01-20T06:15:01.272Z,48.68
2018-01-20T06:17:27.477Z,48.72
2018-01-20T06:19:53.659Z,48.75
2018-01-20T06:22:19.864Z,48.75
2018-01-20T06:24:46.069Z,48.71
2018-01-20T06:27:12.600Z,48.71
2018-01-20T06:29:38.911Z,48.76
2018-01-20T06:32:05.112Z,48.81
2018-01-20T06:34:31.591Z,48.79
2018-01-20T06:36:57.785Z,48.83
2018-01-20T06:39:24.415Z,48.78
2018-01-20T06:41:50.664Z,48.73
2018-01-20T06:44:16.865Z,48.79
2018-01-20T06:46:43.076Z,48.80
2018-01-20T06:49:09.288Z,48.82
2018-01-20T06:51:35.803Z,48.85
2018-01-20T06:54:01.968Z,48.77
2018-01-20T06:56:28.146Z,48.79
2018-01-20T06:58:54.740Z,48.75
2018-01-20T07:01:20.947Z,48.71
2018-01-20T07:03:47.181Z,48.69
2018-01-20T07:06:13.456Z,48.68
2018-01-20T07:08:39.907Z,48.59
2018-01-20T07:11:06.449Z,48.66
2018-01-20T07:13:32.934Z,48.70
2018-01-20T07:15:59.173Z,48.62
2018-01-20T07:18:25.438Z,48.60
2018-01-20T07:20:51.668Z,48.60
2018-01-20T07:23:17.883Z,48.62
2018-01-20T07:25:44.124Z,48.67
2018-01-20T07:28:10.553Z,48.65
2018-01-20T07:30:36.734Z,48.60
2018-01-20T07:33:02.959Z,48.63
2018-01-20T07:35:29.138Z,48.63
2018-01-20T07:37:55.393Z,48.68
2018-01-20T07:40:21.589Z,48.70
2018-01-20T07:42:47.809Z,48.61
2018-01-20T07:45:14.384Z,48.61
2018-01-20T07:47:40.625Z,48.58
2018-01-20T07:52:40.005Z,48.51
2018-01-20T07:55:06.541Z,48.53
2018-01-20T07:57:32.729Z,48.55
2018-01-20T07:59:59.236Z,48.49
2018-01-20T08:02:25.468Z,48.41
2018-01-20T08:04:51.660Z,48.32
2018-01-20T08:07:18.231Z,48.27
2018-01-20T08:09:44.393Z,48.26
2018-01-20T08:12:10.568Z,48.25
2018-01-20T08:14:36.816Z,48.19
2018-01-20T08:17:03.281Z,48.23
2018-01-20T08:19:29.741Z,48.29
2018-01-20T08:21:55.974Z,48.25
2018-01-20T08:24:22.920Z,48.15
2018-01-20T08:26:49.080Z,48.17
2018-01-20T08:29:15.292Z,48.17
2018-01-20T08:31:41.553Z,48.15
2018-01-20T08:34:07.745Z,48.16
2018-01-20T08:36:33.941Z,48.18
2018-01-20T08:39:00.561Z,48.16
2018-01-20T08:41:27.029Z,48.11
2018-01-20T08:43:53.565Z,48.06
2018-01-20T08:46:19.811Z,48.00
2018-01-20T08:48:46.012Z,47.92
2018-01-20T08:51:12.204Z,47.91
2018-01-20T08:53:38.416Z,47.84
2018-01-20T08:56:04.589Z,47.86
2018-01-20T08:58:30.893Z,47.84
2018-01-20T09:00:57.166Z,47.83
2018-01-20T09:03:23.402Z,47.85
2018-01-20T09:05:49.616Z,47.91
2018-01-20T09:08:15.800Z,47.88
2018-01-20T09:10:42.059Z,47.81
2018-01-20T09:13:08.301Z,47.76
2018-01-20T09:15:34.491Z,47.74
2018-01-20T09:18:01.065Z,47.69
2018-01-20T09:20:27.296Z,47.70
2018-01-20T09:22:53.488Z,47.72
2018-01-20T09:25:20.359Z,47.72
2018-01-20T09:27:46.584Z,47.69
2018-01-20T09:30:12.820Z,47.64
2018-01-20T09:32:39.044Z,47.60
2018-01-20T09:35:05.216Z,47.59
2018-01-20T09:37:31.386Z,47.45
2018-01-20T09:39:57.620Z,47.33
2018-01-20T09:42:23.811Z,47.35
2018-01-20T09:44:50.288Z,47.48
2018-01-20T09:47:16.549Z,47.55
2018-01-20T09:49:42.764Z,47.55
2018-01-20T09:52:08.959Z,47.58
2018-01-20T09:54:35.507Z,47.59
2018-01-20T09:57:01.702Z,47.56
2018-01-20T09:59:27.899Z,47.55
2018-01-20T10:01:54.188Z,47.48
2018-01-20T10:04:20.392Z,47.42
2018-01-20T10:06:46.641Z,47.41
2018-01-20T10:09:12.840Z,47.39
2018-01-20T10:11:39.019Z,47.42
2018-01-20T10:14:05.278Z,47.41
2018-01-20T10:16:31.492Z,47.29
2018-01-20T10:18:57.997Z,47.19
2018-01-20T10:21:24.577Z,47.06
2018-01-20T10:23:50.765Z,47.10
2018-01-20T10:26:16.980Z,47.14
2018-01-20T10:28:43.239Z,47.17
2018-01-20T10:31:09.426Z,47.29
2018-01-20T10:33:35.631Z,47.37
2018-01-20T10:36:01.877Z,47.35
2018-01-20T10:38:28.058Z,47.37
2018-01-20T10:40:54.263Z,47.32
2018-01-20T10:43:20.510Z,47.33
2018-01-20T10:45:46.678Z,47.33
2018-01-20T10:48:12.860Z,47.34
2018-01-20T10:50:39.476Z,47.37
2018-01-20T10:53:05.796Z,47.38
2018-01-20T10:55:31.973Z,47.40
2018-01-20T10:57:58.209Z,47.45
2018-01-20T11:00:24.422Z,47.53
2018-01-20T11:02:50.670Z,47.56
2018-01-20T11:05:17.249Z,47.54
2018-01-20T11:07:43.448Z,47.54
2018-01-20T11:10:09.611Z,47.54
2018-01-20T11:12:35.837Z,47.52
2018-01-20T11:15:02.008Z,47.51
2018-01-20T11:17:28.192Z,47.51
2018-01-20T11:19:54.437Z,47.53
2018-01-20T11:22:20.609Z,47.50
2018-01-20T11:24:47.079Z,47.50
2018-01-20T11:27:13.320Z,47.53
2018-01-20T11:29:39.842Z,47.53
2018-01-20T11:32:06.376Z,47.51
2018-01-20T11:34:32.580Z,47.53
2018-01-20T11:36:58.780Z,47.55
2018-01-20T11:39:25.037Z,47.53
2018-01-20T11:41:51.218Z,47.53
2018-01-20T11:44:17.420Z,47.52
2018-01-20T11:46:43.640Z,47.55
2018-01-20T11:49:09.841Z,47.49
2018-01-20T11:51:36.045Z,47.46
2018-01-20T11:54:02.832Z,47.41
2018-01-20T11:56:29.108Z,47.35
2018-01-20T11:58:55.599Z,47.30
2018-01-20T12:01:22.141Z,47.30
2018-01-20T12:03:48.468Z,47.25
2018-01-20T12:06:14.660Z,47.21
2018-01-20T12:08:40.987Z,47.15
2018-01-20T12:11:07.197Z,47.14
2018-01-20T12:13:33.356Z,47.08
2018-01-20T12:15:59.916Z,47.02
2018-01-20T12:18:26.155Z,46.86
2018-01-20T12:20:52.780Z,46.75
2018-01-20T12:23:19.052Z,46.58
2018-01-20T12:25:45.272Z,46.37
2018-01-20T12:28:11.511Z,46.27
2018-01-20T12:30:37.742Z,46.25
2018-01-20T12:33:04.007Z,46.41
2018-01-20T12:35:30.233Z,46.64
2018-01-20T12:37:56.478Z,46.68
2018-01-20T12:40:23.119Z,46.75
2018-01-20T12:42:49.367Z,46.79
2018-01-20T12:45:15.563Z,46.78
2018-01-20T12:47:42.146Z,46.77
2018-01-20T12:50:08.356Z,46.82
2018-01-20T12:52:34.582Z,46.85
2018-01-20T12:55:00.811Z,46.95
2018-01-20T12:57:27.332Z,47.01
2018-01-20T12:59:53.536Z,47.10
2018-01-20T13:02:19.768Z,47.18
2018-01-20T13:04:45.995Z,47.21
2018-01-20T13:07:12.167Z,47.25
2018-01-20T13:09:38.407Z,47.30
2018-01-20T13:12:04.620Z,47.29
2018-01-20T13:14:31.128Z,47.28
2018-01-20T13:16:57.362Z,47.26
2018-01-20T13:19:23.789Z,47.25
2018-01-20T13:21:49.996Z,47.16
2018-01-20T13:24:16.208Z,47.09
2018-01-20T13:26:42.390Z,47.08
2018-01-20T13:29:08.633Z,47.09
2018-01-20T13:31:34.845Z,47.13
2018-01-20T13:34:01.108Z,47.12
2018-01-20T13:36:27.293Z,47.06
2018-01-20T13:38:53.719Z,47.10
2018-01-20T13:41:20.297Z,47.16
2018-01-20T13:43:46.460Z,47.15
2018-01-20T13:46:12.709Z,47.19
2018-01-20T13:48:38.939Z,47.24
2018-01-20T13:51:05.107Z,47.28
2018-01-20T13:53:31.310Z,47.31
2018-01-20T13:55:57.563Z,47.37
2018-01-20T13:58:23.753Z,47.39
2018-01-20T14:00:50.203Z,47.44
2018-01-20T14:03:16.423Z,47.53
2018-01-20T14:05:42.889Z,47.60
2018-01-20T14:08:09.549Z,47.69
2018-01-20T14:10:35.753Z,47.77
2018-01-20T14:13:01.984Z,47.82
2018-01-20T14:15:28.541Z,47.84
2018-01-20T14:17:54.745Z,47.86
2018-01-20T14:20:20.919Z,47.86
2018-01-20T14:22:47.121Z,47.87
2018-01-20T14:25:13.301Z,47.88
2018-01-20T14:27:39.541Z,47.94
2018-01-20T14:30:05.736Z,47.94
2018-01-20T14:32:31.921Z,47.92
2018-01-20T14:34:58.184Z,47.92
2018-01-20T14:37:24.376Z,47.90
2018-01-20T14:39:50.862Z,47.92
2018-01-20T14:42:17.103Z,47.89
2018-01-20T14:44:43.297Z,47.87
2018-01-20T14:47:09.515Z,47.87
2018-01-20T14:49:35.682Z,47.91
2018-01-20T14:52:01.971Z,47.91
2018-01-20T14:54:28.229Z,47.95
2018-01-20T14:56:54.671Z,47.99
2018-01-20T14:59:20.877Z,48.04
2018-01-20T15:01:47.132Z,48.08
2018-01-20T15:04:13.333Z,48.11
2018-01-20T15:06:39.577Z,48.13
2018-01-20T15:09:05.849Z,48.16
2018-01-20T15:11:32.024Z,48.17
2018-01-20T15:13:58.246Z,48.20
2018-01-20T15:16:24.836Z,48.28
2018-01-20T15:18:51.020Z,48.35
2018-01-20T15:21:17.218Z,48.37
2018-01-20T15:23:43.784Z,48.38
2018-01-20T15:26:09.989Z,48.44
2018-01-20T15:28:36.180Z,48.47
2018-01-20T15:31:02.433Z,48.51
2018-01-20T15:33:28.601Z,48.50
2018-01-20T15:35:54.904Z,48.51
2018-01-20T15:38:21.440Z,48.47
2018-01-20T15:40:47.636Z,48.51
2018-01-20T15:43:14.081Z,48.51
2018-01-20T15:45:40.316Z,48.52
2018-01-20T15:48:06.485Z,48.54
2018-01-20T15:50:32.696Z,48.55
2018-01-20T15:52:59.648Z,48.57
2018-01-20T15:55:25.877Z,48.61
2018-01-20T15:57:52.408Z,48.62
2018-01-20T16:00:18.616Z,48.64
2018-01-20T16:02:44.803Z,48.63
2018-01-20T16:05:11.296Z,48.63
2018-01-20T16:07:37.733Z,48.61
2018-01-20T16:10:04.028Z,48.61
2018-01-20T16:12:30.228Z,48.62
2018-01-20T16:14:56.459Z,48.61
2018-01-20T16:17:22.665Z,48.58
2018-01-20T16:19:48.864Z,48.59
2018-01-20T16:22:15.087Z,48.63
2018-01-20T16:24:41.640Z,48.66
2018-01-20T16:27:08.180Z,48.65
2018-01-20T16:29:34.473Z,48.64
2018-01-20T16:32:00.650Z,48.64
2018-01-20T16:34:26.829Z,48.69
2018-01-20T16:36:53.072Z,48.71
2018-01-20T16:39:19.515Z,48.72
2018-01-20T16:41:45.774Z,48.72
2018-01-20T16:44:11.967Z,48.73
2018-01-20T16:46:38.168Z,48.73
2018-01-20T16:49:04.403Z,48.75
2018-01-20T16:51:30.555Z,48.76
2018-01-20T16:53:56.722Z,48.77
2018-01-20T16:56:22.960Z,48.76
2018-01-20T16:58:49.133Z,48.83
2018-01-20T17:01:15.392Z,48.87
2018-01-20T17:03:41.657Z,48.85
2018-01-20T17:06:07.865Z,48.84
2018-01-20T17:08:34.107Z,48.84
2018-01-20T17:11:00.408Z,48.84
2018-01-20T17:13:26.593Z,48.83
2018-01-20T17:15:53.038Z,48.92
2018-01-20T17:18:19.287Z,48.92
2018-01-20T17:20:45.597Z,48.91
2018-01-20T17:23:11.760Z,48.93
2018-01-20T17:25:37.984Z,48.96
2018-01-20T17:28:04.176Z,48.94
2018-01-20T17:30:30.444Z,48.97
2018-01-20T17:32:56.948Z,48.92
2018-01-20T17:35:23.124Z,48.90
2018-01-20T17:37:49.289Z,48.83
2018-01-20T17:40:15.534Z,48.81
2018-01-20T17:42:41.732Z,48.79
2018-01-20T17:45:07.997Z,48.79
2018-01-20T17:47:34.275Z,48.82
2018-01-20T17:50:00.517Z,48.83
2018-01-20T17:52:26.711Z,48.83
2018-01-20T17:54:53.227Z,48.84
2018-01-20T17:57:19.688Z,48.81
2018-01-20T17:59:45.888Z,48.78
2018-01-20T18:02:12.176Z,48.75
2018-01-20T18:04:38.429Z,48.77
2018-01-20T18:07:04.737Z,48.78
2018-01-20T18:09:30.976Z,48.77
2018-01-20T18:11:57.176Z,48.76
2018-01-20T18:14:23.644Z,48.73
2018-01-20T18:16:49.869Z,48.73
2018-01-20T18:19:16.050Z,48.71
2018-01-20T18:21:42.702Z,48.73
2018-01-20T18:24:09.170Z,48.76
2018-01-20T18:26:35.365Z,48.75
2018-01-20T18:29:01.658Z,48.75
2018-01-20T18:31:27.881Z,48.76
2018-01-20T18:33:54.080Z,48.73
2018-01-20T18:36:20.311Z,48.75
2018-01-20T18:38:46.503Z,48.75
2018-01-20T18:41:12.666Z,48.72
2018-01-20T18:43:38.876Z,48.74
2018-01-20T18:46:05.060Z,48.76
2018-01-20T18:48:31.235Z,48.75
2018-01-20T18:50:57.424Z,48.76
2018-01-20T18:53:23.600Z,48.73
2018-01-20T18:55:49.833Z,48.74
2018-01-20T18:58:16.020Z,48.75
2018-01-20T19:00:42.245Z,48.75
2018-01-20T19:03:08.492Z,48.75
2018-01-20T19:05:34.735Z,48.79
2018-01-20T19:08:01.065Z,48.79
2018-01-20T19:10:27.290Z,48.81
2018-01-20T19:12:53.469Z,48.80
2018-01-20T19:15:19.682Z,48.81
2018-01-20T19:17:45.937Z,48.87
2018-01-20T19:20:12.128Z,48.86
2018-01-20T19:22:38.304Z,48.82
2018-01-20T19:25:04.876Z,48.83
2018-01-20T19:27:31.079Z,48.87
2018-01-20T19:29:57.272Z,48.88
2018-01-20T19:32:23.744Z,48.89
2018-01-20T19:34:50.198Z,48.86
2018-01-20T19:37:16.412Z,48.85
2018-01-20T19:39:42.685Z,48.83
2018-01-20T19:42:08.901Z,48.80
2018-01-20T19:44:36.011Z,48.77
2018-01-20T19:47:02.613Z,48.78
2018-01-20T19:49:28.799Z,48.82
2018-01-20T19:51:54.976Z,48.81
2018-01-20T19:54:21.237Z,48.78
2018-01-20T19:56:47.427Z,48.75
2018-01-20T19:59:13.911Z,48.75
2018-01-20T20:01:40.618Z,48.74
2018-01-20T20:04:06.816Z,48.73
2018-01-20T20:06:32.992Z,48.77
2018-01-20T20:08:59.316Z,48.79
2018-01-20T20:11:25.500Z,48.79
2018-01-20T20:13:51.709Z,48.80
2018-01-20T20:16:18.253Z,48.81
2018-01-20T20:18:44.527Z,48.79
2018-01-20T20:21:10.762Z,48.80
2018-01-20T20:23:36.980Z,48.75
2018-01-20T20:26:03.188Z,48.72
2018-01-20T20:28:29.367Z,48.74
2018-01-20T20:30:55.880Z,48.73
2018-01-20T20:33:22.083Z,48.73
2018-01-20T20:35:48.291Z,48.74
2018-01-20T20:38:14.513Z,48.74
2018-01-20T20:40:40.708Z,48.77
2018-01-20T20:43:06.892Z,48.76
2018-01-20T20:45:33.127Z,48.75
2018-01-20T20:47:59.300Z,48.81
2018-01-20T20:50:25.835Z,48.82
2018-01-20T20:52:52.041Z,48.82
2018-01-20T20:55:18.248Z,48.81
2018-01-20T20:57:44.824Z,48.81
2018-01-20T21:00:10.994Z,48.81
2018-01-20T21:02:37.208Z,48.82
2018-01-20T21:05:03.776Z,48.81
2018-01-20T21:07:29.972Z,48.78
2018-01-20T21:09:56.162Z,48.83
2018-01-20T21:12:22.396Z,48.83
2018-01-20T21:14:48.570Z,48.83
2018-01-20T21:17:15.229Z,48.83
2018-01-20T21:19:41.437Z,48.85
2018-01-20T21:22:07.645Z,48.86
2018-01-20T21:24:34.151Z,48.88
2018-01-20T21:27:00.326Z,48.89
2018-01-20T21:29:26.528Z,48.91
2018-01-20T21:31:53.039Z,48.88
2018-01-20T21:34:19.250Z,48.87
2018-01-20T21:36:46.009Z,48.86
2018-01-20T21:39:12.209Z,48.91
2018-01-20T21:41:38.409Z,48.91
2018-01-20T21:44:04.656Z,48.92
2018-01-20T21:46:30.860Z,48.92
2018-01-20T21:48:57.459Z,48.87
2018-01-20T21:51:23.663Z,48.87
2018-01-20T21:53:49.836Z,48.87
2018-01-20T21:56:16.075Z,48.85
2018-01-20T21:58:42.248Z,48.81
2018-01-20T22:01:08.804Z,48.78
2018-01-20T22:03:35.373Z,48.80
2018-01-20T22:06:01.564Z,48.82
2018-01-20T22:08:27.763Z,48.82
2018-01-20T22:10:54.049Z,48.79
2018-01-20T22:13:20.245Z,48.78
2018-01-20T22:15:47.458Z,48.76
2018-01-20T22:18:13.669Z,48.75
2018-01-20T22:20:39.860Z,48.78
2018-01-20T22:23:06.074Z,48.74
2018-01-20T22:25:32.657Z,48.75
2018-01-20T22:27:58.852Z,48.76
2018-01-20T22:30:25.028Z,48.75
2018-01-20T22:32:51.226Z,48.74
2018-01-20T22:35:17.735Z,48.76
2018-01-20T22:37:43.969Z,48.73
2018-01-20T22:40:10.503Z,48.75
2018-01-20T22:42:36.768Z,48.74
2018-01-20T22:45:03.264Z,48.77
2018-01-20T22:47:29.477Z,48.77
2018-01-20T22:49:56.023Z,48.77
2018-01-20T22:52:22.194Z,48.81
2018-01-20T22:54:48.684Z,48.85
2018-01-20T22:57:14.869Z,48.83
2018-01-20T22:59:41.072Z,48.85
2018-01-20T23:02:07.319Z,48.83
2018-01-20T23:04:33.517Z,48.82
2018-01-20T23:06:59.720Z,48.83
2018-01-20T23:09:26.337Z,48.86
2018-01-20T23:11:52.509Z,48.86
2018-01-20T23:14:18.676Z,48.85
2018-01-20T23:16:45.251Z,48.83
2018-01-20T23:19:11.420Z,48.82
2018-01-20T23:21:37.613Z,48.86
2018-01-20T23:24:03.842Z,48.86
2018-01-20T23:26:30.368Z,48.88
2018-01-20T23:28:56.612Z,48.87
2018-01-20T23:31:22.812Z,48.90
2018-01-20T23:33:48.987Z,48.92
2018-01-20T23:36:15.202Z,48.90
2018-01-20T23:38:41.385Z,48.85
2018-01-20T23:41:07.948Z,48.79
2018-01-20T23:43:34.146Z,48.78
2018-01-20T23:46:00.603Z,48.77
2018-01-20T23:48:26.856Z,48.78
2018-01-20T23:50:53.039Z,48.78
2018-01-20T23:53:19.495Z,48.81
2018-01-20T23:55:45.728Z,48.81
2018-01-20T23:58:11.911Z,48.84
